Time;durP1;ratioP1;P1;durP2;ratioP2;P2;SDS_P1;SDS_P2;PMS_P1;PMS_P2;Temp;Humidity;BMP_temperature;BMP_pressure;BME280_temperature;BME280_humidity;BME280_pressure;Samples;Min_cycle;Max_cycle;Signal;HPM_P1;HPM_P2
2021/01/06 00:00:52;;;;;;;3.97;2.80;;;4.40;99.90;;;;;;5030181;28;20682;-67
2021/01/06 00:03:39;;;;;;;3.10;2.80;;;4.40;99.90;;;;;;5026431;28;20641;-65
2021/01/06 00:06:30;;;;;;;5.03;3.10;;;4.40;99.90;;;;;;5019219;28;20598;-64
2021/01/06 00:09:15;;;;;;;5.07;2.60;;;4.30;99.90;;;;;;5034307;28;20628;-65
2021/01/06 00:12:05;;;;;;;3.17;2.83;;;4.40;99.90;;;;;;5035381;28;20686;-65
2021/01/06 00:14:50;;;;;;;3.50;2.73;;;4.40;99.90;;;;;;5024690;28;20702;-67
2021/01/06 00:17:34;;;;;;;3.77;3.00;;;4.40;99.90;;;;;;5017483;28;21052;-65
2021/01/06 00:20:20;;;;;;;3.60;2.83;;;4.40;99.90;;;;;;5014193;28;20633;-65
2021/01/06 00:23:08;;;;;;;3.90;2.70;;;4.40;99.90;;;;;;5022648;28;20801;-65
2021/01/06 00:25:53;;;;;;;2.60;2.40;;;4.40;99.90;;;;;;5025608;28;20590;-65
2021/01/06 00:28:37;;;;;;;2.93;2.67;;;4.40;99.90;;;;;;5017636;28;20661;-65
2021/01/06 00:31:22;;;;;;;4.50;3.37;;;4.40;99.90;;;;;;5020085;28;20631;-67
2021/01/06 00:34:07;;;;;;;4.23;3.20;;;4.40;99.90;;;;;;5011816;28;21292;-64
2021/01/06 00:36:52;;;;;;;3.30;2.73;;;4.40;99.90;;;;;;5026597;28;20984;-64
2021/01/06 00:39:36;;;;;;;3.73;2.80;;;4.40;99.90;;;;;;5021223;28;20634;-64
2021/01/06 00:42:23;;;;;;;3.70;3.13;;;4.40;99.90;;;;;;5024600;28;20618;-67
2021/01/06 00:45:13;;;;;;;3.27;2.87;;;4.30;99.90;;;;;;5029372;28;20685;-66
2021/01/06 00:47:58;;;;;;;3.70;2.90;;;4.30;99.90;;;;;;5027957;28;20583;-64
2021/01/06 00:50:43;;;;;;;4.60;3.30;;;4.30;99.90;;;;;;5023892;28;21263;-64
2021/01/06 00:53:27;;;;;;;3.93;2.87;;;4.30;99.90;;;;;;5025917;28;21121;-64
2021/01/06 00:56:12;;;;;;;4.40;3.30;;;4.30;99.90;;;;;;5025475;28;20595;-65
2021/01/06 00:58:59;;;;;;;3.33;3.00;;;4.30;99.90;;;;;;5026102;28;20829;-64
2021/01/06 01:01:44;;;;;;;4.03;2.60;;;4.30;99.90;;;;;;5025534;28;20662;-64
2021/01/06 01:04:30;;;;;;;6.03;3.20;;;4.30;99.90;;;;;;5023308;28;21247;-64
2021/01/06 01:07:15;;;;;;;3.57;3.03;;;4.30;99.90;;;;;;5027776;28;20875;-65
2021/01/06 01:09:59;;;;;;;3.80;2.80;;;4.30;99.90;;;;;;5020886;28;20820;-65
2021/01/06 01:12:50;;;;;;;3.17;2.87;;;4.30;99.90;;;;;;5041845;23;21231;-69
2021/01/06 01:15:37;;;;;;;3.50;3.20;;;4.30;99.90;;;;;;4928741;28;20607;-69
2021/01/06 01:18:27;;;;;;;3.87;3.20;;;4.30;99.90;;;;;;4903700;28;21150;-68
2021/01/06 01:21:11;;;;;;;4.60;3.30;;;4.20;99.90;;;;;;4922437;28;20705;-68
2021/01/06 01:23:56;;;;;;;4.37;2.83;;;4.20;99.90;;;;;;4966856;28;20666;-70
2021/01/06 01:26:40;;;;;;;3.87;3.03;;;4.20;99.90;;;;;;4914804;28;20703;-69
2021/01/06 01:29:25;;;;;;;2.93;2.47;;;4.20;99.90;;;;;;4904683;28;21065;-69
2021/01/06 01:32:09;;;;;;;3.30;2.43;;;4.20;99.90;;;;;;4913506;28;20955;-70
2021/01/06 01:34:54;;;;;;;4.53;2.70;;;4.20;99.90;;;;;;4928612;29;20752;-70
2021/01/06 01:37:45;;;;;;;4.53;2.60;;;4.20;99.90;;;;;;4919366;28;20591;-69
2021/01/06 01:40:39;;;;;;;3.20;2.90;;;4.20;99.90;;;;;;4904645;28;20658;-69
2021/01/06 01:43:24;;;;;;;3.60;2.63;;;4.20;99.90;;;;;;4909429;28;20686;-69
2021/01/06 01:46:09;;;;;;;2.63;2.40;;;4.10;99.90;;;;;;4912713;29;20751;-70
2021/01/06 01:48:53;;;;;;;4.10;2.77;;;4.20;99.90;;;;;;4910861;28;20639;-69
2021/01/06 01:51:44;;;;;;;2.43;2.17;;;4.20;99.90;;;;;;4912462;28;20670;-69
2021/01/06 01:54:29;;;;;;;3.00;2.57;;;4.20;99.90;;;;;;4911089;28;20650;-69
2021/01/06 01:57:18;;;;;;;2.90;2.60;;;4.20;99.90;;;;;;4914054;29;20710;-70
2021/01/06 02:00:14;;;;;;;3.67;2.20;;;4.20;99.90;;;;;;4911162;28;21225;-70
2021/01/06 02:03:18;;;;;;;2.97;2.50;;;4.20;99.90;;;;;;4904083;28;20676;-70
2021/01/06 02:06:22;;;;;;;3.33;2.67;;;4.20;99.90;;;;;;4912713;28;20611;-68
2021/01/06 02:09:18;;;;;;;3.20;2.43;;;4.20;99.90;;;;;;4917058;28;20722;-69
2021/01/06 02:12:22;;;;;;;3.37;2.80;;;4.20;99.90;;;;;;4911061;28;20580;-67
2021/01/06 02:15:17;;;;;;;3.67;2.83;;;4.20;99.90;;;;;;4910666;28;20643;-70
2021/01/06 02:18:03;;;;;;;3.50;3.17;;;4.20;99.90;;;;;;4914413;28;20599;-69
2021/01/06 02:21:07;;;;;;;3.40;2.80;;;4.20;99.90;;;;;;4910424;28;20643;-70
2021/01/06 02:23:55;;;;;;;4.00;3.10;;;4.20;99.90;;;;;;4906763;28;21082;-69
2021/01/06 02:26:40;;;;;;;5.20;3.10;;;4.20;99.90;;;;;;4914803;28;20595;-69
2021/01/06 02:29:25;;;;;;;3.83;3.20;;;4.40;99.90;;;;;;4904378;28;20654;-69
2021/01/06 02:32:12;;;;;;;5.03;3.30;;;4.30;99.90;;;;;;4913174;29;20634;-69
2021/01/06 02:34:57;;;;;;;3.40;3.10;;;4.30;99.90;;;;;;4916898;29;20993;-69
2021/01/06 02:37:43;;;;;;;5.13;3.10;;;4.30;99.90;;;;;;4911752;28;20611;-70
2021/01/06 02:40:27;;;;;;;4.37;3.43;;;4.30;99.90;;;;;;4909316;28;21059;-70
2021/01/06 02:43:12;;;;;;;3.70;3.20;;;4.30;99.90;;;;;;4908839;28;20840;-69
2021/01/06 02:45:56;;;;;;;3.30;3.00;;;4.30;99.90;;;;;;4912952;28;20726;-70
2021/01/06 02:48:42;;;;;;;4.30;3.40;;;4.30;99.90;;;;;;4914293;28;20627;-68
2021/01/06 02:51:49;;;;;;;3.60;3.00;;;4.30;99.90;;;;;;4907054;28;20873;-69
2021/01/06 02:54:40;;;;;;;5.80;3.30;;;4.30;99.90;;;;;;4912492;28;20682;-68
2021/01/06 02:57:30;;;;;;;3.63;3.33;;;4.30;99.90;;;;;;4914825;28;20631;-69
2021/01/06 03:00:22;;;;;;;3.50;3.20;;;4.20;99.90;;;;;;4910797;28;21036;-69
2021/01/06 03:03:11;;;;;;;4.40;3.50;;;4.20;99.90;;;;;;4926714;28;20725;-70
2021/01/06 03:06:25;;;;;;;3.80;2.90;;;4.20;99.90;;;;;;4916049;28;20731;-69
2021/01/06 03:09:30;;;;;;;3.73;3.33;;;4.20;99.90;;;;;;4901059;28;20619;-69
2021/01/06 03:12:25;;;;;;;4.33;3.27;;;4.20;99.90;;;;;;4924720;29;20747;-69
2021/01/06 03:15:13;;;;;;;4.20;3.80;;;4.30;99.90;;;;;;4908433;28;20639;-69
2021/01/06 03:17:59;;;;;;;3.97;3.60;;;4.20;99.90;;;;;;4923326;28;21103;-70
2021/01/06 03:20:46;;;;;;;5.20;3.70;;;4.20;99.90;;;;;;4907334;28;21229;-69
2021/01/06 03:23:41;;;;;;;3.80;2.93;;;4.20;99.90;;;;;;4912816;28;20679;-69
2021/01/06 03:26:27;;;;;;;5.00;3.77;;;4.20;99.90;;;;;;4927004;29;20670;-69
2021/01/06 03:29:11;;;;;;;5.10;3.50;;;4.20;99.90;;;;;;4912870;28;20602;-69
2021/01/06 03:32:00;;;;;;;5.30;3.80;;;4.20;99.90;;;;;;4908056;29;20682;-69
2021/01/06 03:34:55;;;;;;;5.57;3.70;;;4.20;99.90;;;;;;4910599;28;20786;-71
2021/01/06 03:37:47;;;;;;;6.13;3.90;;;4.10;99.90;;;;;;4911680;28;20596;-70
2021/01/06 03:40:37;;;;;;;5.80;4.10;;;4.20;99.90;;;;;;4906886;28;20659;-69
2021/01/06 03:43:27;;;;;;;4.00;3.40;;;4.20;99.90;;;;;;4909248;28;21736;-68
2021/01/06 03:46:25;;;;;;;6.27;3.70;;;4.20;99.90;;;;;;4924997;28;20619;-68
2021/01/06 03:49:24;;;;;;;3.73;3.33;;;4.20;99.90;;;;;;4920717;28;20686;-69
2021/01/06 03:52:59;;;;;;;4.97;4.00;;;4.20;99.90;;;;;;4924462;29;20608;-69
2021/01/06 03:55:54;;;;;;;4.73;3.80;;;4.20;99.90;;;;;;4980910;28;20679;-69
2021/01/06 03:58:52;;;;;;;4.53;3.43;;;4.10;99.90;;;;;;4967217;28;20713;-68
2021/01/06 04:02:27;;;;;;;4.23;3.70;;;4.10;99.90;;;;;;4962893;28;21065;-69
2021/01/06 04:05:17;;;;;;;6.20;3.77;;;4.10;99.90;;;;;;4947336;28;20660;-69
2021/01/06 04:08:03;;;;;;;3.80;3.40;;;4.00;99.90;;;;;;4963419;28;20590;-69
2021/01/06 04:10:53;;;;;;;4.20;3.80;;;4.00;99.90;;;;;;4964688;28;20787;-69
2021/01/06 04:13:39;;;;;;;4.53;4.10;;;4.00;99.90;;;;;;4985569;28;21041;-69
2021/01/06 04:16:24;;;;;;;5.10;3.87;;;4.00;99.90;;;;;;4962918;28;21022;-69
2021/01/06 04:19:09;;;;;;;4.97;3.90;;;4.00;99.90;;;;;;4968350;28;20632;-69
2021/01/06 04:21:53;;;;;;;5.80;4.63;;;4.00;99.90;;;;;;4982363;28;20623;-69
2021/01/06 04:24:38;;;;;;;5.77;4.10;;;4.10;99.90;;;;;;4968823;28;21199;-69
2021/01/06 04:27:23;;;;;;;4.27;3.70;;;4.10;99.90;;;;;;4915965;28;20595;-70
2021/01/06 04:30:13;;;;;;;5.13;3.70;;;4.10;99.90;;;;;;4908627;28;20640;-68
2021/01/06 04:32:58;;;;;;;4.20;3.60;;;4.20;99.90;;;;;;4916178;28;21009;-69
2021/01/06 04:35:44;;;;;;;5.20;3.70;;;4.20;99.90;;;;;;4910909;28;20735;-69
2021/01/06 04:38:31;;;;;;;5.20;3.90;;;4.10;99.90;;;;;;4960922;28;20591;-68
2021/01/06 04:41:38;;;;;;;4.10;3.70;;;4.20;99.90;;;;;;4914123;28;20714;-69
2021/01/06 04:44:45;;;;;;;3.97;3.40;;;4.10;99.90;;;;;;4905739;28;20662;-69
2021/01/06 04:47:47;;;;;;;4.50;3.43;;;4.10;99.90;;;;;;4916498;28;21106;-69
2021/01/06 04:51:00;;;;;;;4.20;3.80;;;4.10;99.90;;;;;;4907246;29;20634;-69
2021/01/06 04:54:05;;;;;;;5.20;3.90;;;4.00;99.90;;;;;;4984066;28;20662;-70
2021/01/06 04:57:11;;;;;;;4.93;3.87;;;4.00;99.90;;;;;;4927349;28;20694;-68
2021/01/06 05:00:37;;;;;;;6.00;3.53;;;4.10;99.90;;;;;;4896200;28;22156;-70
2021/01/06 05:03:32;;;;;;;4.50;4.10;;;4.10;99.90;;;;;;4925684;28;21322;-69
2021/01/06 05:06:16;;;;;;;4.53;3.80;;;4.10;99.90;;;;;;4888287;28;21790;-68
2021/01/06 05:09:29;;;;;;;4.60;3.67;;;4.10;99.90;;;;;;4929332;28;20635;-69
2021/01/06 05:12:28;;;;;;;5.10;4.60;;;4.10;99.90;;;;;;4928927;29;20655;-69
2021/01/06 05:15:13;;;;;;;5.20;3.87;;;4.10;99.90;;;;;;4913100;28;20615;-69
2021/01/06 05:17:57;;;;;;;5.60;4.13;;;4.10;99.90;;;;;;4924469;28;20603;-69
2021/01/06 05:20:42;;;;;;;4.73;4.03;;;4.10;99.90;;;;;;4911775;28;21269;-69
2021/01/06 05:23:36;;;;;;;5.20;4.10;;;4.10;99.90;;;;;;4917455;28;20666;-70
2021/01/06 05:26:21;;;;;;;4.90;3.87;;;4.00;99.90;;;;;;4926205;28;20603;-69
2021/01/06 05:29:19;;;;;;;4.33;3.63;;;4.10;99.90;;;;;;4924128;28;20594;-69
2021/01/06 05:32:04;;;;;;;4.33;3.50;;;4.10;99.90;;;;;;4927617;28;20611;-69
2021/01/06 05:34:54;;;;;;;6.07;3.93;;;4.10;99.90;;;;;;4906594;28;21048;-70
2021/01/06 05:37:39;;;;;;;5.43;3.67;;;4.20;99.90;;;;;;4915766;28;20751;-69
2021/01/06 05:40:24;;;;;;;5.23;4.10;;;4.20;99.90;;;;;;4913145;28;20658;-68
2021/01/06 05:43:18;;;;;;;4.90;4.17;;;4.20;99.90;;;;;;4933440;28;21061;-69
2021/01/06 05:46:08;;;;;;;6.57;4.40;;;4.20;99.90;;;;;;4909113;28;20615;-68
2021/01/06 05:48:57;;;;;;;5.67;3.83;;;4.20;99.90;;;;;;4916564;28;20701;-70
2021/01/06 05:51:52;;;;;;;4.70;3.80;;;4.30;99.90;;;;;;4914577;28;20793;-69
2021/01/06 05:54:54;;;;;;;5.80;3.90;;;4.30;99.90;;;;;;4926121;28;20655;-70
2021/01/06 05:57:55;;;;;;;4.27;3.60;;;4.30;99.90;;;;;;4911488;28;20686;-67
2021/01/06 06:00:52;;;;;;;4.73;4.23;;;4.30;99.90;;;;;;4910203;28;20632;-69
2021/01/06 06:03:52;;;;;;;4.50;3.50;;;4.30;99.90;;;;;;4912885;28;20741;-68
2021/01/06 06:07:10;;;;;;;4.57;4.00;;;4.30;99.90;;;;;;4908489;28;20607;-69
2021/01/06 06:10:32;;;;;;;5.63;4.00;;;4.30;99.90;;;;;;4904846;28;20658;-70
2021/01/06 06:13:48;;;;;;;3.97;3.57;;;4.30;99.90;;;;;;4917042;28;20938;-69
2021/01/06 06:16:49;;;;;;;5.70;4.00;;;4.30;99.90;;;;;;4938242;28;20576;-68
2021/01/06 06:20:08;;;;;;;5.80;3.83;;;4.40;99.90;;;;;;4922054;28;20703;-70
2021/01/06 06:23:16;;;;;;;4.63;3.90;;;4.30;99.90;;;;;;4917239;28;20655;-69
2021/01/06 06:26:19;;;;;;;5.67;4.10;;;4.30;99.90;;;;;;4904417;28;21084;-69
2021/01/06 06:29:21;;;;;;;6.63;4.27;;;4.30;99.90;;;;;;4904639;28;20681;-68
2021/01/06 06:32:06;;;;;;;6.83;5.20;;;4.30;99.90;;;;;;4909883;28;20937;-68
2021/01/06 06:34:51;;;;;;;7.80;4.40;;;4.30;99.90;;;;;;4909995;28;20679;-69
2021/01/06 06:38:12;;;;;;;6.03;4.50;;;4.30;99.90;;;;;;4916108;28;20627;-69
2021/01/06 06:41:03;;;;;;;4.87;3.90;;;4.20;99.90;;;;;;4926347;28;21313;-69
2021/01/06 06:44:09;;;;;;;7.63;4.80;;;4.20;99.90;;;;;;4909699;28;20682;-67
2021/01/06 06:47:09;;;;;;;5.60;4.50;;;4.20;99.90;;;;;;4922817;28;20595;-68
2021/01/06 06:50:20;;;;;;;4.90;4.07;;;4.20;99.90;;;;;;4905394;28;21386;-68
2021/01/06 06:53:33;;;;;;;6.00;4.80;;;4.20;99.90;;;;;;4901854;28;21010;-69
2021/01/06 06:56:27;;;;;;;5.30;4.47;;;4.20;99.90;;;;;;4884988;28;23422;-68
2021/01/06 06:59:19;;;;;;;5.93;4.47;;;4.20;99.90;;;;;;4909228;28;21224;-71
2021/01/06 07:02:08;;;;;;;6.80;5.37;;;4.20;99.90;;;;;;4910116;28;20631;-68
2021/01/06 07:04:56;;;;;;;4.90;4.40;;;4.20;99.90;;;;;;4889310;28;20662;-69
2021/01/06 07:07:51;;;;;;;6.20;4.27;;;4.10;99.90;;;;;;4905402;28;20591;-69
2021/01/06 07:10:45;;;;;;;4.70;4.20;;;4.10;99.90;;;;;;4915752;28;20631;-69
2021/01/06 07:13:32;;;;;;;5.20;4.27;;;4.10;99.90;;;;;;4919009;28;21012;-69
2021/01/06 07:16:18;;;;;;;8.03;4.93;;;4.00;99.90;;;;;;4923375;22;21243;-71
2021/01/06 07:19:31;;;;;;;4.53;3.90;;;4.00;99.90;;;;;;4910977;28;20659;-70
2021/01/06 07:22:31;;;;;;;5.80;4.63;;;4.00;99.90;;;;;;4916127;28;20686;-70
2021/01/06 07:25:19;;;;;;;6.70;4.57;;;4.10;99.90;;;;;;4932400;28;20708;-70
2021/01/06 07:28:12;;;;;;;5.40;4.20;;;4.00;99.90;;;;;;4896708;28;20602;-70
2021/01/06 07:31:12;;;;;;;7.60;5.27;;;4.00;99.90;;;;;;4902439;28;20660;-70
2021/01/06 07:34:02;;;;;;;6.97;4.97;;;4.00;99.90;;;;;;4888482;28;20719;-71
2021/01/06 07:36:57;;;;;;;5.20;4.53;;;3.90;99.90;;;;;;4899456;28;20668;-71
2021/01/06 07:39:42;;;;;;;6.23;4.40;;;3.90;99.90;;;;;;4900461;28;20640;-71
2021/01/06 07:42:40;;;;;;;7.00;4.70;;;3.90;99.90;;;;;;4899032;28;20708;-71
2021/01/06 07:45:30;;;;;;;9.90;5.30;;;3.90;99.90;;;;;;4893073;28;20625;-71
2021/01/06 07:48:15;;;;;;;5.63;4.57;;;3.90;99.90;;;;;;4871800;28;21706;-71
2021/01/06 07:51:15;;;;;;;4.97;4.47;;;3.90;99.90;;;;;;4869664;28;20765;-71
2021/01/06 07:54:12;;;;;;;5.87;4.73;;;3.90;99.90;;;;;;4867769;28;20733;-71
2021/01/06 07:57:12;;;;;;;5.93;5.03;;;3.90;99.90;;;;;;4870827;28;20679;-71
2021/01/06 08:00:00;;;;;;;5.20;4.50;;;3.90;99.90;;;;;;4868235;28;20762;-71
2021/01/06 08:02:58;;;;;;;5.63;4.43;;;3.90;99.90;;;;;;4871237;28;21102;-71
2021/01/06 08:05:54;;;;;;;8.27;5.30;;;3.90;99.90;;;;;;4873757;28;20648;-71
2021/01/06 08:08:49;;;;;;;7.97;5.20;;;3.90;99.90;;;;;;4876085;28;20707;-71
2021/01/06 08:11:44;;;;;;;5.93;4.80;;;3.90;99.90;;;;;;4875812;28;20652;-70
2021/01/06 08:14:33;;;;;;;5.00;4.07;;;3.80;99.90;;;;;;4878684;28;20670;-71
2021/01/06 08:17:30;;;;;;;5.53;4.20;;;3.80;99.90;;;;;;4876086;28;20683;-70
2021/01/06 08:20:43;;;;;;;5.97;4.90;;;3.80;99.90;;;;;;4875914;28;21776;-70
2021/01/06 08:23:51;;;;;;;6.40;4.20;;;3.80;99.90;;;;;;4877228;28;20728;-70
2021/01/06 08:26:46;;;;;;;8.40;5.37;;;3.90;99.90;;;;;;4879303;28;21521;-71
2021/01/06 08:29:33;;;;;;;9.97;4.93;;;3.80;99.90;;;;;;4874099;28;20708;-70
2021/01/06 08:32:17;;;;;;;6.53;4.70;;;3.80;99.90;;;;;;4875375;28;20637;-70
2021/01/06 08:35:07;;;;;;;6.73;4.93;;;3.80;99.90;;;;;;4872856;28;20648;-70
2021/01/06 08:37:52;;;;;;;7.87;5.03;;;3.80;99.90;;;;;;4888094;28;20664;-70
2021/01/06 08:40:38;;;;;;;6.10;4.40;;;3.80;99.90;;;;;;4876817;28;20655;-70
2021/01/06 08:43:23;;;;;;;5.53;4.93;;;3.80;99.90;;;;;;4891531;28;21962;-70
2021/01/06 08:46:21;;;;;;;5.97;5.07;;;3.80;99.90;;;;;;4897469;28;20656;-70
2021/01/06 08:49:30;;;;;;;6.63;5.10;;;3.80;99.90;;;;;;4911913;28;20611;-69
2021/01/06 08:52:15;;;;;;;6.17;4.63;;;3.80;99.90;;;;;;4907752;28;20584;-69
2021/01/06 08:55:05;;;;;;;5.93;5.00;;;3.80;99.90;;;;;;4901371;28;20668;-70
2021/01/06 08:58:16;;;;;;;5.70;4.70;;;3.70;99.90;;;;;;4894209;28;20657;-70
2021/01/06 09:01:01;;;;;;;7.47;5.17;;;3.70;99.90;;;;;;4923183;28;20648;-70
2021/01/06 09:04:09;;;;;;;8.00;5.77;;;3.70;99.90;;;;;;4907509;28;20764;-69
2021/01/06 09:07:14;;;;;;;6.03;4.93;;;3.70;99.90;;;;;;4914076;28;20791;-69
2021/01/06 09:10:29;;;;;;;7.00;5.07;;;3.70;99.90;;;;;;4928534;28;20675;-70
2021/01/06 09:13:19;;;;;;;6.80;5.23;;;3.70;99.90;;;;;;4924568;28;20613;-70
2021/01/06 09:16:25;;;;;;;5.90;4.77;;;3.70;99.90;;;;;;4916450;28;20817;-70
2021/01/06 09:19:34;;;;;;;6.33;5.07;;;3.70;99.90;;;;;;4933610;28;20631;-70
2021/01/06 09:22:19;;;;;;;7.27;5.67;;;3.70;99.90;;;;;;4911625;28;20604;-70
2021/01/06 09:25:04;;;;;;;6.43;5.20;;;3.70;99.90;;;;;;4937031;28;20638;-70
2021/01/06 09:27:50;;;;;;;6.47;5.77;;;3.70;99.90;;;;;;4910650;28;20703;-70
2021/01/06 09:30:38;;;;;;;7.10;5.50;;;3.60;99.90;;;;;;4917781;28;20770;-70
2021/01/06 09:33:30;;;;;;;5.83;5.23;;;3.50;99.90;;;;;;4924094;28;20871;-70
2021/01/06 09:36:16;;;;;;;5.93;4.50;;;3.50;99.90;;;;;;4923575;28;20663;-71
2021/01/06 09:39:02;;;;;;;6.73;4.87;;;3.60;99.90;;;;;;4926910;28;20634;-70
2021/01/06 09:41:48;;;;;;;5.50;5.00;;;3.60;99.90;;;;;;4914639;28;20636;-70
2021/01/06 09:44:33;;;;;;;6.03;4.80;;;3.60;99.90;;;;;;4914684;28;20631;-70
2021/01/06 09:47:28;;;;;;;5.37;4.70;;;3.70;99.90;;;;;;4912452;28;20773;-70
2021/01/06 09:50:28;;;;;;;5.73;4.70;;;3.60;99.90;;;;;;4911199;28;21193;-71
2021/01/06 09:53:16;;;;;;;5.83;4.93;;;3.60;99.90;;;;;;4908158;28;20747;-70
2021/01/06 09:56:01;;;;;;;6.77;5.40;;;3.60;99.90;;;;;;4911600;28;20664;-70
2021/01/06 09:58:48;;;;;;;6.20;5.27;;;3.60;99.90;;;;;;4908247;28;20635;-70
2021/01/06 10:01:49;;;;;;;6.57;5.27;;;3.60;99.90;;;;;;4907598;28;20648;-70
2021/01/06 10:04:41;;;;;;;6.13;4.60;;;3.60;99.90;;;;;;4905917;28;20725;-70
2021/01/06 10:07:48;;;;;;;6.57;4.83;;;3.60;99.90;;;;;;4906297;28;20774;-70
2021/01/06 10:10:36;;;;;;;6.40;5.17;;;3.70;99.90;;;;;;4903058;28;20639;-70
2021/01/06 10:13:48;;;;;;;4.90;4.37;;;3.70;99.90;;;;;;4890203;28;21024;-70
2021/01/06 10:16:44;;;;;;;5.57;4.40;;;3.60;99.90;;;;;;4874893;28;20687;-70
2021/01/06 10:19:43;;;;;;;5.87;5.20;;;3.60;99.90;;;;;;4889293;28;20652;-70
2021/01/06 10:22:57;;;;;;;6.40;4.70;;;3.60;99.90;;;;;;4914748;28;21027;-70
2021/01/06 10:25:47;;;;;;;6.70;4.80;;;3.60;99.90;;;;;;4917053;28;20996;-69
2021/01/06 10:28:43;;;;;;;5.30;4.77;;;3.60;99.90;;;;;;4899141;28;20655;-70
2021/01/06 10:31:28;;;;;;;5.03;4.20;;;3.60;99.90;;;;;;4907794;28;20656;-70
2021/01/06 10:34:29;;;;;;;6.40;4.50;;;3.60;99.90;;;;;;4912616;28;21185;-70
2021/01/06 10:37:20;;;;;;;5.00;4.50;;;3.70;99.90;;;;;;4914432;28;21175;-70
2021/01/06 10:40:25;;;;;;;4.60;4.10;;;3.60;99.90;;;;;;4907699;28;20741;-70
2021/01/06 10:43:42;;;;;;;6.30;4.50;;;3.70;99.90;;;;;;4914138;28;20643;-70
2021/01/06 10:46:43;;;;;;;4.60;4.20;;;3.70;99.90;;;;;;4902336;28;20742;-70
2021/01/06 10:49:30;;;;;;;4.40;4.00;;;3.80;99.90;;;;;;4923583;28;20655;-70
2021/01/06 10:52:22;;;;;;;5.93;4.13;;;3.80;99.90;;;;;;4901298;28;20585;-70
2021/01/06 10:55:06;;;;;;;4.20;3.80;;;3.80;99.90;;;;;;4911419;28;20648;-70
2021/01/06 10:58:17;;;;;;;4.47;4.07;;;3.70;99.90;;;;;;4896688;28;20680;-70
2021/01/06 11:01:15;;;;;;;3.70;3.40;;;3.70;99.90;;;;;;4905238;28;20643;-70
2021/01/06 11:04:29;;;;;;;4.63;4.23;;;3.60;99.90;;;;;;4901257;28;21196;-70
2021/01/06 11:07:30;;;;;;;5.30;4.33;;;3.60;99.90;;;;;;4905215;28;20667;-70
2021/01/06 11:10:24;;;;;;;5.63;4.40;;;3.70;99.90;;;;;;4901778;28;21194;-70
2021/01/06 11:13:37;;;;;;;4.90;4.40;;;3.80;99.90;;;;;;4924300;28;20699;-68
2021/01/06 11:16:26;;;;;;;4.53;4.03;;;3.70;99.90;;;;;;4937093;28;20740;-70
2021/01/06 11:19:42;;;;;;;4.43;3.87;;;3.70;99.90;;;;;;4948651;28;20640;-70
2021/01/06 11:22:43;;;;;;;4.30;3.47;;;3.60;99.90;;;;;;4915370;28;21139;-70
2021/01/06 11:25:50;;;;;;;4.63;4.00;;;3.60;99.90;;;;;;4909019;28;20600;-70
2021/01/06 11:29:11;;;;;;;4.07;3.67;;;3.60;99.90;;;;;;4898589;28;21191;-70
2021/01/06 11:32:05;;;;;;;3.90;3.57;;;3.60;99.90;;;;;;4916202;28;20647;-70
2021/01/06 11:35:07;;;;;;;4.00;3.60;;;3.70;99.90;;;;;;4896556;28;20747;-70
2021/01/06 11:37:53;;;;;;;4.70;4.00;;;3.80;99.90;;;;;;4901664;28;20746;-70
2021/01/06 11:40:47;;;;;;;4.63;4.17;;;3.80;99.90;;;;;;4895992;28;20815;-71
2021/01/06 11:43:54;;;;;;;3.80;3.37;;;3.90;99.90;;;;;;4914619;28;20639;-70
2021/01/06 11:46:52;;;;;;;3.57;3.27;;;3.80;99.90;;;;;;4876678;28;21026;-70
2021/01/06 11:49:42;;;;;;;3.33;3.03;;;3.80;99.90;;;;;;4873357;28;21542;-70
2021/01/06 11:52:46;;;;;;;4.47;4.07;;;3.90;99.90;;;;;;4876132;28;20671;-71
2021/01/06 11:55:37;;;;;;;3.30;3.00;;;3.80;99.90;;;;;;4877682;28;21117;-71
2021/01/06 11:58:27;;;;;;;4.10;3.30;;;3.70;99.90;;;;;;4873825;28;20759;-71
2021/01/06 12:01:31;;;;;;;4.90;3.40;;;3.70;99.90;;;;;;4877860;28;20652;-70
2021/01/06 12:04:35;;;;;;;3.63;3.33;;;3.70;99.90;;;;;;4879057;28;20703;-70
2021/01/06 12:07:47;;;;;;;4.90;3.77;;;3.70;99.90;;;;;;4881126;28;20716;-70
2021/01/06 12:10:42;;;;;;;3.50;3.20;;;3.70;99.90;;;;;;4880109;28;20706;-70
2021/01/06 12:13:40;;;;;;;3.60;3.00;;;3.70;99.90;;;;;;4882643;28;20654;-71
2021/01/06 12:16:43;;;;;;;4.10;3.70;;;3.50;99.90;;;;;;4882245;28;20675;-71
2021/01/06 12:20:19;;;;;;;3.43;3.13;;;3.60;99.90;;;;;;4901454;28;20803;-71
2021/01/06 12:23:17;;;;;;;4.30;3.33;;;3.60;99.90;;;;;;4890771;28;21368;-71
2021/01/06 12:26:02;;;;;;;3.60;2.87;;;3.70;99.90;;;;;;4885098;28;20684;-71
2021/01/06 12:28:56;;;;;;;3.30;3.00;;;3.80;99.90;;;;;;4883617;28;20632;-71
2021/01/06 12:31:55;;;;;;;3.20;2.93;;;3.70;99.90;;;;;;4881573;28;20647;-71
2021/01/06 12:34:42;;;;;;;4.00;2.93;;;3.70;99.90;;;;;;4884474;28;20601;-71
2021/01/06 12:37:31;;;;;;;2.90;2.60;;;3.70;99.90;;;;;;4884996;28;20701;-71
2021/01/06 12:40:21;;;;;;;3.10;2.90;;;3.70;99.90;;;;;;4883009;28;21320;-70
2021/01/06 12:43:20;;;;;;;3.70;3.03;;;3.80;99.90;;;;;;4925130;28;21009;-71
2021/01/06 12:46:26;;;;;;;3.60;3.30;;;3.80;99.90;;;;;;4912711;28;20680;-72
2021/01/06 12:49:13;;;;;;;3.60;3.30;;;3.70;99.90;;;;;;4908369;28;20592;-71
2021/01/06 12:52:26;;;;;;;3.60;3.30;;;3.60;99.90;;;;;;4919786;28;20612;-71
2021/01/06 12:55:45;;;;;;;4.83;3.67;;;3.60;99.90;;;;;;4908757;28;21269;-72
2021/01/06 12:58:45;;;;;;;5.40;3.90;;;3.60;99.90;;;;;;4903769;28;20620;-71
2021/01/06 13:01:46;;;;;;;4.60;3.73;;;3.60;99.90;;;;;;4907373;28;20691;-71
2021/01/06 13:04:34;;;;;;;4.20;3.80;;;3.70;99.90;;;;;;4928042;28;20678;-71
2021/01/06 13:07:34;;;;;;;4.03;3.73;;;3.80;99.90;;;;;;4931723;28;21182;-69
2021/01/06 13:10:44;;;;;;;4.03;3.70;;;3.80;99.90;;;;;;4925310;28;20647;-70
2021/01/06 13:13:39;;;;;;;4.20;3.80;;;3.60;99.90;;;;;;4909937;28;20580;-69
2021/01/06 13:16:31;;;;;;;5.67;4.10;;;3.60;99.90;;;;;;4932239;22;21325;-70
2021/01/06 13:19:39;;;;;;;3.80;3.50;;;3.60;99.90;;;;;;4902382;28;20667;-68
2021/01/06 13:22:26;;;;;;;4.13;3.73;;;3.60;99.90;;;;;;4903710;28;20634;-67
2021/01/06 13:25:25;;;;;;;4.30;3.63;;;3.70;99.90;;;;;;4904843;28;20662;-69
2021/01/06 13:28:12;;;;;;;4.47;4.07;;;3.70;99.90;;;;;;4884529;28;20662;-72
2021/01/06 13:31:22;;;;;;;4.20;3.90;;;3.60;99.90;;;;;;4887084;28;20643;-70
2021/01/06 13:34:28;;;;;;;4.00;3.70;;;3.60;99.90;;;;;;4889581;28;20685;-68
2021/01/06 13:37:13;;;;;;;3.57;3.20;;;3.70;99.90;;;;;;4915990;28;21506;-67
2021/01/06 13:40:10;;;;;;;3.83;3.53;;;3.60;99.90;;;;;;4929088;28;20647;-67
2021/01/06 13:43:00;;;;;;;4.40;4.00;;;3.60;99.90;;;;;;4889405;28;20607;-66
2021/01/06 13:45:59;;;;;;;4.00;3.60;;;3.60;99.90;;;;;;4888007;28;20671;-68
2021/01/06 13:49:09;;;;;;;3.70;3.40;;;3.50;99.90;;;;;;4889714;28;20619;-67
2021/01/06 13:52:01;;;;;;;4.13;3.30;;;3.40;99.90;;;;;;4884129;28;20697;-67
2021/01/06 13:54:50;;;;;;;3.97;3.30;;;3.50;99.90;;;;;;4884114;28;20615;-66
2021/01/06 13:57:45;;;;;;;3.47;3.17;;;3.50;99.90;;;;;;4901836;28;20701;-66
2021/01/06 14:00:47;;;;;;;3.80;3.50;;;3.30;99.90;;;;;;4897258;28;20659;-67
2021/01/06 14:03:49;;;;;;;3.33;3.00;;;3.30;99.90;;;;;;4885578;28;20645;-67
2021/01/06 14:06:58;;;;;;;3.60;3.30;;;3.40;99.90;;;;;;4896052;28;21290;-68
2021/01/06 14:10:17;;;;;;;3.90;3.50;;;3.40;99.90;;;;;;4889236;28;20662;-65
2021/01/06 14:13:17;;;;;;;3.80;3.50;;;3.40;99.90;;;;;;4907563;28;20671;-67
2021/01/06 14:16:33;;;;;;;4.17;3.77;;;3.40;99.90;;;;;;4910395;28;20732;-67
2021/01/06 14:20:03;;;;;;;3.50;3.20;;;3.40;99.90;;;;;;4908973;28;20946;-67
2021/01/06 14:23:00;;;;;;;3.37;3.07;;;3.50;99.90;;;;;;4940042;28;20603;-67
2021/01/06 14:25:47;;;;;;;3.40;3.10;;;3.50;99.90;;;;;;4937439;28;20820;-66
2021/01/06 14:28:47;;;;;;;3.03;2.73;;;3.40;99.90;;;;;;4928410;28;20595;-66
2021/01/06 14:31:39;;;;;;;3.60;3.30;;;3.40;99.90;;;;;;4918299;28;20759;-67
2021/01/06 14:34:33;;;;;;;2.97;2.67;;;3.30;99.90;;;;;;4907327;28;20726;-64
2021/01/06 14:37:23;;;;;;;3.63;3.33;;;3.40;99.90;;;;;;4918953;28;20762;-66
2021/01/06 14:40:34;;;;;;;3.47;3.17;;;3.40;99.90;;;;;;4909567;28;21225;-64
2021/01/06 14:43:41;;;;;;;3.57;3.27;;;3.40;99.90;;;;;;4918596;28;20730;-68
2021/01/06 14:46:49;;;;;;;3.73;3.30;;;3.40;99.90;;;;;;4921893;28;20671;-67
2021/01/06 14:49:39;;;;;;;3.03;2.77;;;3.50;99.90;;;;;;4946745;28;20649;-65
2021/01/06 14:52:28;;;;;;;2.93;2.73;;;3.70;99.90;;;;;;4909524;28;20743;-68
2021/01/06 14:55:24;;;;;;;3.53;3.23;;;3.50;99.90;;;;;;4917953;28;20596;-67
2021/01/06 14:58:22;;;;;;;3.60;3.30;;;3.40;99.90;;;;;;4920968;28;20873;-67
2021/01/06 15:01:19;;;;;;;4.10;3.43;;;3.30;99.90;;;;;;4930622;28;20750;-67
2021/01/06 15:04:17;;;;;;;2.73;2.53;;;3.20;99.90;;;;;;4919317;28;20762;-67
2021/01/06 15:07:07;;;;;;;3.23;2.93;;;3.20;99.90;;;;;;4963550;28;21067;-66
2021/01/06 15:10:18;;;;;;;3.53;3.23;;;3.30;99.90;;;;;;4952521;28;20683;-68
2021/01/06 15:13:12;;;;;;;3.00;2.80;;;3.40;99.90;;;;;;4970473;28;20603;-67
2021/01/06 15:16:19;;;;;;;3.60;3.30;;;3.40;99.90;;;;;;4960641;28;20646;-67
2021/01/06 15:19:17;;;;;;;3.40;3.10;;;3.30;99.90;;;;;;4966158;28;20653;-63
2021/01/06 15:22:17;;;;;;;3.30;3.07;;;3.40;99.90;;;;;;4970121;28;20655;-68
2021/01/06 15:25:32;;;;;;;3.10;2.80;;;3.40;99.90;;;;;;4923700;28;20643;-66